sensor_id;sensor_type;location;lat;lon;timestamp;P1;durP1;ratioP1;P2;durP2;ratioP2
73747;SDS011;62056;52.130;5.428;2023-11-21T00:02:18;15.93;;;8.20;;
73747;SDS011;62056;52.130;5.428;2023-11-21T00:04:47;16.02;;;8.88;;
73747;SDS011;62056;52.130;5.428;2023-11-21T00:07:14;12.35;;;7.07;;
73747;SDS011;62056;52.130;5.428;2023-11-21T00:09:41;7.87;;;5.73;;
73747;SDS011;62056;52.130;5.428;2023-11-21T00:12:08;9.50;;;5.60;;
73747;SDS011;62056;52.130;5.428;2023-11-21T00:14:38;17.30;;;7.35;;
73747;SDS011;62056;52.130;5.428;2023-11-21T00:17:04;9.63;;;7.07;;
73747;SDS011;62056;52.130;5.428;2023-11-21T00:19:32;11.60;;;7.57;;
73747;SDS011;62056;52.130;5.428;2023-11-21T00:22:02;18.37;;;8.33;;
73747;SDS011;62056;52.130;5.428;2023-11-21T00:24:28;23.35;;;9.20;;
73747;SDS011;62056;52.130;5.428;2023-11-21T00:26:55;20.85;;;7.07;;
73747;SDS011;62056;52.130;5.428;2023-11-21T00:29:22;46.65;;;8.55;;
73747;SDS011;62056;52.130;5.428;2023-11-21T00:31:48;51.28;;;7.75;;
73747;SDS011;62056;52.130;5.428;2023-11-21T00:34:15;43.70;;;8.00;;
73747;SDS011;62056;52.130;5.428;2023-11-21T00:36:42;57.55;;;8.52;;
73747;SDS011;62056;52.130;5.428;2023-11-21T00:39:08;48.50;;;8.30;;
73747;SDS011;62056;52.130;5.428;2023-11-21T00:41:35;28.90;;;7.78;;
73747;SDS011;62056;52.130;5.428;2023-11-21T00:44:03;13.07;;;7.15;;
73747;SDS011;62056;52.130;5.428;2023-11-21T00:46:30;19.40;;;7.33;;
73747;SDS011;62056;52.130;5.428;2023-11-21T00:48:58;18.55;;;6.95;;
73747;SDS011;62056;52.130;5.428;2023-11-21T00:51:25;11.43;;;7.53;;
73747;SDS011;62056;52.130;5.428;2023-11-21T00:53:52;13.50;;;7.93;;
73747;SDS011;62056;52.130;5.428;2023-11-21T00:56:19;9.05;;;7.15;;
73747;SDS011;62056;52.130;5.428;2023-11-21T00:58:45;8.43;;;6.70;;
73747;SDS011;62056;52.130;5.428;2023-11-21T01:01:16;9.60;;;7.32;;
73747;SDS011;62056;52.130;5.428;2023-11-21T01:03:43;14.18;;;8.30;;
73747;SDS011;62056;52.130;5.428;2023-11-21T01:06:12;30.20;;;10.77;;
73747;SDS011;62056;52.130;5.428;2023-11-21T01:08:41;31.92;;;13.32;;
73747;SDS011;62056;52.130;5.428;2023-11-21T01:11:08;18.70;;;9.47;;
73747;SDS011;62056;52.130;5.428;2023-11-21T01:13:34;22.40;;;11.43;;
73747;SDS011;62056;52.130;5.428;2023-11-21T01:16:02;27.67;;;11.45;;
73747;SDS011;62056;52.130;5.428;2023-11-21T01:18:30;14.88;;;9.15;;
73747;SDS011;62056;52.130;5.428;2023-11-21T01:20:56;14.20;;;8.65;;
73747;SDS011;62056;52.130;5.428;2023-11-21T01:23:23;7.60;;;6.20;;
73747;SDS011;62056;52.130;5.428;2023-11-21T01:25:50;8.13;;;6.13;;
73747;SDS011;62056;52.130;5.428;2023-11-21T01:28:18;14.40;;;9.45;;
73747;SDS011;62056;52.130;5.428;2023-11-21T01:30:46;17.30;;;12.27;;
73747;SDS011;62056;52.130;5.428;2023-11-21T01:33:12;9.80;;;7.60;;
73747;SDS011;62056;52.130;5.428;2023-11-21T01:35:42;10.27;;;6.90;;
73747;SDS011;62056;52.130;5.428;2023-11-21T01:38:09;7.80;;;6.68;;
73747;SDS011;62056;52.130;5.428;2023-11-21T01:40:36;5.63;;;5.07;;
73747;SDS011;62056;52.130;5.428;2023-11-21T01:43:02;5.97;;;5.32;;
73747;SDS011;62056;52.130;5.428;2023-11-21T01:45:29;10.35;;;7.00;;
73747;SDS011;62056;52.130;5.428;2023-11-21T01:48:00;7.07;;;5.00;;
73747;SDS011;62056;52.130;5.428;2023-11-21T01:50:28;5.90;;;4.75;;
73747;SDS011;62056;52.130;5.428;2023-11-21T01:52:55;9.30;;;5.50;;
73747;SDS011;62056;52.130;5.428;2023-11-21T01:55:22;8.73;;;5.55;;
73747;SDS011;62056;52.130;5.428;2023-11-21T01:57:54;6.07;;;5.18;;
73747;SDS011;62056;52.130;5.428;2023-11-21T02:00:22;6.37;;;4.10;;
73747;SDS011;62056;52.130;5.428;2023-11-21T02:02:50;5.53;;;5.00;;
73747;SDS011;62056;52.130;5.428;2023-11-21T02:05:17;12.30;;;6.57;;
73747;SDS011;62056;52.130;5.428;2023-11-21T02:07:45;9.18;;;6.50;;
73747;SDS011;62056;52.130;5.428;2023-11-21T02:10:14;5.50;;;4.22;;
73747;SDS011;62056;52.130;5.428;2023-11-21T02:12:42;6.10;;;4.53;;
73747;SDS011;62056;52.130;5.428;2023-11-21T02:15:16;6.95;;;4.78;;
73747;SDS011;62056;52.130;5.428;2023-11-21T02:17:47;7.65;;;5.88;;
73747;SDS011;62056;52.130;5.428;2023-11-21T02:20:19;7.28;;;5.00;;
73747;SDS011;62056;52.130;5.428;2023-11-21T02:22:49;7.25;;;5.07;;
73747;SDS011;62056;52.130;5.428;2023-11-21T02:25:22;9.90;;;5.43;;
73747;SDS011;62056;52.130;5.428;2023-11-21T02:27:49;11.35;;;5.40;;
73747;SDS011;62056;52.130;5.428;2023-11-21T02:30:16;21.30;;;11.80;;
73747;SDS011;62056;52.130;5.428;2023-11-21T02:32:43;16.92;;;9.68;;
73747;SDS011;62056;52.130;5.428;2023-11-21T02:35:14;7.30;;;6.60;;
73747;SDS011;62056;52.130;5.428;2023-11-21T02:37:42;6.53;;;4.63;;
73747;SDS011;62056;52.130;5.428;2023-11-21T02:40:09;9.57;;;6.68;;
73747;SDS011;62056;52.130;5.428;2023-11-21T02:42:39;9.50;;;6.85;;
73747;SDS011;62056;52.130;5.428;2023-11-21T02:45:07;9.27;;;6.18;;
73747;SDS011;62056;52.130;5.428;2023-11-21T02:47:34;7.82;;;5.75;;
73747;SDS011;62056;52.130;5.428;2023-11-21T02:50:01;8.63;;;6.27;;
73747;SDS011;62056;52.130;5.428;2023-11-21T02:52:28;7.63;;;5.80;;
73747;SDS011;62056;52.130;5.428;2023-11-21T02:54:55;5.68;;;5.10;;
73747;SDS011;62056;52.130;5.428;2023-11-21T02:57:22;5.63;;;4.63;;
73747;SDS011;62056;52.130;5.428;2023-11-21T02:59:49;5.70;;;4.10;;
73747;SDS011;62056;52.130;5.428;2023-11-21T03:02:16;7.13;;;4.47;;
73747;SDS011;62056;52.130;5.428;2023-11-21T03:04:43;8.85;;;4.85;;
73747;SDS011;62056;52.130;5.428;2023-11-21T03:07:10;8.00;;;5.13;;
73747;SDS011;62056;52.130;5.428;2023-11-21T03:09:36;7.35;;;4.80;;
73747;SDS011;62056;52.130;5.428;2023-11-21T03:12:03;8.35;;;5.38;;
73747;SDS011;62056;52.130;5.428;2023-11-21T03:14:30;8.53;;;6.00;;
73747;SDS011;62056;52.130;5.428;2023-11-21T03:16:57;7.78;;;5.28;;
73747;SDS011;62056;52.130;5.428;2023-11-21T03:19:24;7.13;;;4.57;;
73747;SDS011;62056;52.130;5.428;2023-11-21T03:21:51;12.45;;;6.38;;
73747;SDS011;62056;52.130;5.428;2023-11-21T03:24:19;7.15;;;5.00;;
73747;SDS011;62056;52.130;5.428;2023-11-21T03:26:46;13.20;;;4.90;;
73747;SDS011;62056;52.130;5.428;2023-11-21T03:29:13;5.95;;;5.32;;
73747;SDS011;62056;52.130;5.428;2023-11-21T03:31:41;8.73;;;6.00;;
73747;SDS011;62056;52.130;5.428;2023-11-21T03:34:09;6.95;;;5.35;;
73747;SDS011;62056;52.130;5.428;2023-11-21T03:36:41;12.95;;;7.20;;
73747;SDS011;62056;52.130;5.428;2023-11-21T03:39:08;8.73;;;7.77;;
73747;SDS011;62056;52.130;5.428;2023-11-21T03:41:35;31.48;;;25.15;;
73747;SDS011;62056;52.130;5.428;2023-11-21T03:44:01;12.15;;;8.40;;
73747;SDS011;62056;52.130;5.428;2023-11-21T03:46:28;14.98;;;7.57;;
73747;SDS011;62056;52.130;5.428;2023-11-21T03:48:55;15.57;;;10.73;;
73747;SDS011;62056;52.130;5.428;2023-11-21T03:51:22;14.27;;;10.70;;
73747;SDS011;62056;52.130;5.428;2023-11-21T03:53:49;15.88;;;7.70;;
73747;SDS011;62056;52.130;5.428;2023-11-21T03:56:15;13.02;;;7.80;;
73747;SDS011;62056;52.130;5.428;2023-11-21T03:58:42;19.75;;;13.52;;
73747;SDS011;62056;52.130;5.428;2023-11-21T04:01:09;7.10;;;6.05;;
73747;SDS011;62056;52.130;5.428;2023-11-21T04:03:35;10.67;;;5.83;;
73747;SDS011;62056;52.130;5.428;2023-11-21T04:06:02;7.72;;;5.78;;
73747;SDS011;62056;52.130;5.428;2023-11-21T04:08:29;8.10;;;5.18;;
73747;SDS011;62056;52.130;5.428;2023-11-21T04:10:55;7.90;;;5.50;;
73747;SDS011;62056;52.130;5.428;2023-11-21T04:13:22;5.65;;;4.93;;
73747;SDS011;62056;52.130;5.428;2023-11-21T04:15:49;12.30;;;5.07;;
73747;SDS011;62056;52.130;5.428;2023-11-21T04:18:16;9.82;;;5.00;;
73747;SDS011;62056;52.130;5.428;2023-11-21T04:20:42;13.68;;;5.10;;
73747;SDS011;62056;52.130;5.428;2023-11-21T04:23:09;12.55;;;5.75;;
73747;SDS011;62056;52.130;5.428;2023-11-21T04:25:36;8.38;;;5.57;;
73747;SDS011;62056;52.130;5.428;2023-11-21T04:28:03;11.97;;;4.33;;
73747;SDS011;62056;52.130;5.428;2023-11-21T04:30:30;9.52;;;4.85;;
73747;SDS011;62056;52.130;5.428;2023-11-21T04:32:57;5.25;;;4.75;;
73747;SDS011;62056;52.130;5.428;2023-11-21T04:35:24;13.65;;;4.97;;
73747;SDS011;62056;52.130;5.428;2023-11-21T04:37:51;10.13;;;5.13;;
73747;SDS011;62056;52.130;5.428;2023-11-21T04:40:18;8.17;;;4.43;;
73747;SDS011;62056;52.130;5.428;2023-11-21T04:42:47;9.55;;;4.70;;
73747;SDS011;62056;52.130;5.428;2023-11-21T04:45:14;7.90;;;5.03;;
73747;SDS011;62056;52.130;5.428;2023-11-21T04:47:42;20.13;;;8.85;;
73747;SDS011;62056;52.130;5.428;2023-11-21T04:50:10;11.50;;;5.63;;
73747;SDS011;62056;52.130;5.428;2023-11-21T04:52:37;7.43;;;5.27;;
73747;SDS011;62056;52.130;5.428;2023-11-21T04:55:03;8.50;;;5.60;;
73747;SDS011;62056;52.130;5.428;2023-11-21T04:57:33;11.75;;;6.70;;
73747;SDS011;62056;52.130;5.428;2023-11-21T05:00:00;7.07;;;5.97;;
73747;SDS011;62056;52.130;5.428;2023-11-21T05:02:26;10.07;;;5.45;;
73747;SDS011;62056;52.130;5.428;2023-11-21T05:05:04;11.10;;;4.80;;
73747;SDS011;62056;52.130;5.428;2023-11-21T05:07:32;8.73;;;4.90;;
73747;SDS011;62056;52.130;5.428;2023-11-21T05:10:02;8.63;;;5.55;;
73747;SDS011;62056;52.130;5.428;2023-11-21T05:12:34;12.32;;;5.43;;
73747;SDS011;62056;52.130;5.428;2023-11-21T05:15:03;13.70;;;5.63;;
73747;SDS011;62056;52.130;5.428;2023-11-21T05:17:38;8.67;;;5.03;;
73747;SDS011;62056;52.130;5.428;2023-11-21T05:20:09;13.05;;;6.07;;
73747;SDS011;62056;52.130;5.428;2023-11-21T05:22:37;10.20;;;5.63;;
73747;SDS011;62056;52.130;5.428;2023-11-21T05:25:04;8.90;;;5.95;;
73747;SDS011;62056;52.130;5.428;2023-11-21T05:27:32;10.20;;;5.07;;
73747;SDS011;62056;52.130;5.428;2023-11-21T05:29:58;13.63;;;5.07;;
73747;SDS011;62056;52.130;5.428;2023-11-21T05:32:25;9.70;;;5.38;;
73747;SDS011;62056;52.130;5.428;2023-11-21T05:34:53;10.23;;;6.07;;
73747;SDS011;62056;52.130;5.428;2023-11-21T05:37:19;10.15;;;6.18;;
73747;SDS011;62056;52.130;5.428;2023-11-21T05:39:46;11.18;;;5.70;;
73747;SDS011;62056;52.130;5.428;2023-11-21T05:42:13;11.83;;;5.60;;
73747;SDS011;62056;52.130;5.428;2023-11-21T05:44:41;16.38;;;6.05;;
73747;SDS011;62056;52.130;5.428;2023-11-21T05:47:09;11.10;;;5.70;;
73747;SDS011;62056;52.130;5.428;2023-11-21T05:49:36;12.13;;;5.78;;
73747;SDS011;62056;52.130;5.428;2023-11-21T05:52:03;12.65;;;6.53;;
73747;SDS011;62056;52.130;5.428;2023-11-21T05:54:31;10.97;;;5.43;;
73747;SDS011;62056;52.130;5.428;2023-11-21T05:56:59;11.68;;;5.68;;
73747;SDS011;62056;52.130;5.428;2023-11-21T05:59:25;8.85;;;6.13;;
73747;SDS011;62056;52.130;5.428;2023-11-21T06:01:52;17.40;;;5.78;;
73747;SDS011;62056;52.130;5.428;2023-11-21T06:04:20;14.05;;;5.78;;
73747;SDS011;62056;52.130;5.428;2023-11-21T06:06:51;7.27;;;5.33;;
73747;SDS011;62056;52.130;5.428;2023-11-21T06:09:19;14.00;;;7.03;;
73747;SDS011;62056;52.130;5.428;2023-11-21T06:11:45;11.30;;;6.07;;
73747;SDS011;62056;52.130;5.428;2023-11-21T06:14:12;17.17;;;6.40;;
73747;SDS011;62056;52.130;5.428;2023-11-21T06:16:39;13.20;;;5.90;;
73747;SDS011;62056;52.130;5.428;2023-11-21T06:19:07;6.23;;;5.40;;
73747;SDS011;62056;52.130;5.428;2023-11-21T06:21:33;10.00;;;6.25;;
73747;SDS011;62056;52.130;5.428;2023-11-21T06:24:00;14.40;;;5.45;;
73747;SDS011;62056;52.130;5.428;2023-11-21T06:26:27;14.75;;;5.78;;
73747;SDS011;62056;52.130;5.428;2023-11-21T06:28:54;9.70;;;5.68;;
73747;SDS011;62056;52.130;5.428;2023-11-21T06:31:21;8.53;;;6.23;;
73747;SDS011;62056;52.130;5.428;2023-11-21T06:33:48;11.90;;;6.55;;
73747;SDS011;62056;52.130;5.428;2023-11-21T06:36:16;14.43;;;6.60;;
73747;SDS011;62056;52.130;5.428;2023-11-21T06:38:42;12.65;;;5.68;;
73747;SDS011;62056;52.130;5.428;2023-11-21T06:41:09;12.65;;;7.32;;
73747;SDS011;62056;52.130;5.428;2023-11-21T06:43:36;15.97;;;7.33;;
73747;SDS011;62056;52.130;5.428;2023-11-21T06:46:03;11.25;;;6.25;;
73747;SDS011;62056;52.130;5.428;2023-11-21T06:48:30;14.00;;;7.00;;
73747;SDS011;62056;52.130;5.428;2023-11-21T06:50:57;13.90;;;6.90;;
73747;SDS011;62056;52.130;5.428;2023-11-21T06:53:24;12.25;;;5.40;;
73747;SDS011;62056;52.130;5.428;2023-11-21T06:55:51;14.70;;;6.03;;
73747;SDS011;62056;52.130;5.428;2023-11-21T06:58:19;10.18;;;4.10;;
73747;SDS011;62056;52.130;5.428;2023-11-21T07:00:46;9.35;;;5.00;;
73747;SDS011;62056;52.130;5.428;2023-11-21T07:03:14;10.02;;;4.80;;
73747;SDS011;62056;52.130;5.428;2023-11-21T07:05:41;13.02;;;4.90;;
73747;SDS011;62056;52.130;5.428;2023-11-21T07:08:08;7.23;;;4.63;;
73747;SDS011;62056;52.130;5.428;2023-11-21T07:10:35;8.45;;;4.20;;
73747;SDS011;62056;52.130;5.428;2023-11-21T07:13:03;9.88;;;5.00;;
73747;SDS011;62056;52.130;5.428;2023-11-21T07:15:29;8.82;;;4.93;;
73747;SDS011;62056;52.130;5.428;2023-11-21T07:17:56;6.22;;;3.65;;
73747;SDS011;62056;52.130;5.428;2023-11-21T07:20:23;7.07;;;4.57;;
73747;SDS011;62056;52.130;5.428;2023-11-21T07:22:49;6.95;;;4.40;;
73747;SDS011;62056;52.130;5.428;2023-11-21T07:25:16;6.45;;;4.43;;
73747;SDS011;62056;52.130;5.428;2023-11-21T07:27:43;8.82;;;5.18;;
73747;SDS011;62056;52.130;5.428;2023-11-21T07:30:10;12.27;;;5.45;;
73747;SDS011;62056;52.130;5.428;2023-11-21T07:32:38;13.13;;;5.50;;
73747;SDS011;62056;52.130;5.428;2023-11-21T07:35:07;10.13;;;4.95;;
73747;SDS011;62056;52.130;5.428;2023-11-21T07:37:34;7.68;;;5.05;;
73747;SDS011;62056;52.130;5.428;2023-11-21T07:40:01;10.90;;;5.32;;
73747;SDS011;62056;52.130;5.428;2023-11-21T07:42:29;10.05;;;4.40;;
73747;SDS011;62056;52.130;5.428;2023-11-21T07:44:55;8.57;;;5.07;;
73747;SDS011;62056;52.130;5.428;2023-11-21T07:47:22;12.63;;;5.30;;
73747;SDS011;62056;52.130;5.428;2023-11-21T07:49:54;10.73;;;5.70;;
73747;SDS011;62056;52.130;5.428;2023-11-21T07:52:22;11.85;;;4.78;;
73747;SDS011;62056;52.130;5.428;2023-11-21T07:54:49;17.17;;;4.75;;
73747;SDS011;62056;52.130;5.428;2023-11-21T07:57:17;15.17;;;4.53;;
73747;SDS011;62056;52.130;5.428;2023-11-21T07:59:43;15.30;;;3.80;;
73747;SDS011;62056;52.130;5.428;2023-11-21T08:02:11;8.85;;;3.88;;
73747;SDS011;62056;52.130;5.428;2023-11-21T08:04:38;6.88;;;4.20;;
73747;SDS011;62056;52.130;5.428;2023-11-21T08:07:04;9.77;;;4.20;;
73747;SDS011;62056;52.130;5.428;2023-11-21T08:09:31;13.00;;;4.67;;
73747;SDS011;62056;52.130;5.428;2023-11-21T08:11:59;5.15;;;3.50;;
73747;SDS011;62056;52.130;5.428;2023-11-21T08:14:27;8.60;;;3.78;;
73747;SDS011;62056;52.130;5.428;2023-11-21T08:16:53;12.88;;;4.07;;
73747;SDS011;62056;52.130;5.428;2023-11-21T08:19:24;9.88;;;4.88;;
73747;SDS011;62056;52.130;5.428;2023-11-21T08:21:54;8.93;;;4.53;;
73747;SDS011;62056;52.130;5.428;2023-11-21T08:24:21;5.28;;;3.70;;
73747;SDS011;62056;52.130;5.428;2023-11-21T08:26:48;11.25;;;3.70;;
73747;SDS011;62056;52.130;5.428;2023-11-21T08:29:16;7.00;;;3.95;;
73747;SDS011;62056;52.130;5.428;2023-11-21T08:31:42;5.53;;;3.33;;
73747;SDS011;62056;52.130;5.428;2023-11-21T08:34:11;4.83;;;2.80;;
73747;SDS011;62056;52.130;5.428;2023-11-21T08:36:40;5.93;;;3.78;;
73747;SDS011;62056;52.130;5.428;2023-11-21T08:39:08;3.67;;;2.58;;
73747;SDS011;62056;52.130;5.428;2023-11-21T08:41:36;4.20;;;3.15;;
73747;SDS011;62056;52.130;5.428;2023-11-21T08:44:03;4.05;;;2.85;;
73747;SDS011;62056;52.130;5.428;2023-11-21T08:46:33;6.07;;;2.23;;
73747;SDS011;62056;52.130;5.428;2023-11-21T08:49:01;3.60;;;2.45;;
73747;SDS011;62056;52.130;5.428;2023-11-21T08:51:27;5.25;;;2.20;;
73747;SDS011;62056;52.130;5.428;2023-11-21T08:53:54;2.65;;;1.73;;
73747;SDS011;62056;52.130;5.428;2023-11-21T08:56:25;5.95;;;3.33;;
73747;SDS011;62056;52.130;5.428;2023-11-21T08:58:52;4.83;;;3.57;;
73747;SDS011;62056;52.130;5.428;2023-11-21T09:01:19;8.48;;;4.05;;
73747;SDS011;62056;52.130;5.428;2023-11-21T09:03:47;5.57;;;3.90;;
73747;SDS011;62056;52.130;5.428;2023-11-21T09:06:16;4.07;;;3.67;;
73747;SDS011;62056;52.130;5.428;2023-11-21T09:08:44;4.43;;;3.85;;
73747;SDS011;62056;52.130;5.428;2023-11-21T09:11:11;7.63;;;5.10;;
73747;SDS011;62056;52.130;5.428;2023-11-21T09:13:41;5.82;;;4.07;;
73747;SDS011;62056;52.130;5.428;2023-11-21T09:16:09;8.75;;;5.07;;
73747;SDS011;62056;52.130;5.428;2023-11-21T09:18:44;7.45;;;5.70;;
73747;SDS011;62056;52.130;5.428;2023-11-21T09:21:15;5.13;;;4.57;;
73747;SDS011;62056;52.130;5.428;2023-11-21T09:23:50;6.43;;;5.13;;
73747;SDS011;62056;52.130;5.428;2023-11-21T09:26:16;8.95;;;6.05;;
73747;SDS011;62056;52.130;5.428;2023-11-21T09:28:43;8.15;;;5.93;;
73747;SDS011;62056;52.130;5.428;2023-11-21T09:31:13;6.82;;;6.15;;
73747;SDS011;62056;52.130;5.428;2023-11-21T09:33:43;7.93;;;6.05;;
73747;SDS011;62056;52.130;5.428;2023-11-21T09:36:13;5.87;;;5.27;;
73747;SDS011;62056;52.130;5.428;2023-11-21T09:38:41;5.78;;;4.63;;
73747;SDS011;62056;52.130;5.428;2023-11-21T09:41:14;5.93;;;4.78;;
73747;SDS011;62056;52.130;5.428;2023-11-21T09:43:47;6.63;;;5.30;;
73747;SDS011;62056;52.130;5.428;2023-11-21T09:46:21;5.57;;;4.45;;
73747;SDS011;62056;52.130;5.428;2023-11-21T09:48:50;7.83;;;5.40;;
73747;SDS011;62056;52.130;5.428;2023-11-21T09:51:21;8.73;;;5.82;;
73747;SDS011;62056;52.130;5.428;2023-11-21T09:53:56;6.68;;;5.35;;
73747;SDS011;62056;52.130;5.428;2023-11-21T09:56:25;9.80;;;5.30;;
73747;SDS011;62056;52.130;5.428;2023-11-21T09:58:53;8.27;;;5.22;;
73747;SDS011;62056;52.130;5.428;2023-11-21T10:01:20;6.50;;;4.93;;
73747;SDS011;62056;52.130;5.428;2023-11-21T10:03:49;6.28;;;4.97;;
73747;SDS011;62056;52.130;5.428;2023-11-21T10:06:16;7.47;;;4.72;;
73747;SDS011;62056;52.130;5.428;2023-11-21T10:08:44;7.88;;;5.25;;
73747;SDS011;62056;52.130;5.428;2023-11-21T10:11:21;7.55;;;5.65;;
73747;SDS011;62056;52.130;5.428;2023-11-21T10:13:54;6.60;;;4.63;;
73747;SDS011;62056;52.130;5.428;2023-11-21T10:16:24;8.95;;;5.03;;
73747;SDS011;62056;52.130;5.428;2023-11-21T10:18:53;8.23;;;5.53;;
73747;SDS011;62056;52.130;5.428;2023-11-21T10:21:37;6.72;;;4.78;;
73747;SDS011;62056;52.130;5.428;2023-11-21T10:24:06;5.32;;;4.40;;
73747;SDS011;62056;52.130;5.428;2023-11-21T10:26:33;4.57;;;3.80;;
73747;SDS011;62056;52.130;5.428;2023-11-21T10:29:16;4.38;;;3.83;;
73747;SDS011;62056;52.130;5.428;2023-11-21T10:31:43;5.55;;;4.22;;
73747;SDS011;62056;52.130;5.428;2023-11-21T10:34:12;4.53;;;3.00;;
73747;SDS011;62056;52.130;5.428;2023-11-21T10:36:39;4.55;;;3.60;;
73747;SDS011;62056;52.130;5.428;2023-11-21T10:39:06;5.77;;;3.57;;
73747;SDS011;62056;52.130;5.428;2023-11-21T10:41:33;4.57;;;4.05;;
73747;SDS011;62056;52.130;5.428;2023-11-21T10:44:02;5.25;;;4.47;;
73747;SDS011;62056;52.130;5.428;2023-11-21T10:46:33;5.90;;;3.92;;
73747;SDS011;62056;52.130;5.428;2023-11-21T10:49:01;5.95;;;4.15;;
73747;SDS011;62056;52.130;5.428;2023-11-21T10:51:28;8.70;;;4.73;;
73747;SDS011;62056;52.130;5.428;2023-11-21T10:53:55;5.88;;;4.55;;
73747;SDS011;62056;52.130;5.428;2023-11-21T10:56:23;5.18;;;4.38;;
73747;SDS011;62056;52.130;5.428;2023-11-21T10:58:52;7.55;;;4.10;;
73747;SDS011;62056;52.130;5.428;2023-11-21T11:01:19;3.75;;;3.08;;
73747;SDS011;62056;52.130;5.428;2023-11-21T11:03:51;4.10;;;3.23;;
73747;SDS011;62056;52.130;5.428;2023-11-21T11:06:21;4.28;;;2.75;;
73747;SDS011;62056;52.130;5.428;2023-11-21T11:08:48;4.40;;;4.00;;
73747;SDS011;62056;52.130;5.428;2023-11-21T11:11:18;5.32;;;3.75;;
73747;SDS011;62056;52.130;5.428;2023-11-21T11:13:45;7.35;;;4.82;;
73747;SDS011;62056;52.130;5.428;2023-11-21T11:16:14;5.03;;;4.13;;
73747;SDS011;62056;52.130;5.428;2023-11-21T11:18:44;6.47;;;4.75;;
73747;SDS011;62056;52.130;5.428;2023-11-21T11:21:16;4.68;;;4.22;;
73747;SDS011;62056;52.130;5.428;2023-11-21T11:24:17;6.10;;;3.78;;
73747;SDS011;62056;52.130;5.428;2023-11-21T11:37:55;5.97;;;4.80;;
73747;SDS011;62056;52.130;5.428;2023-11-21T11:40:22;5.00;;;4.50;;
73747;SDS011;62056;52.130;5.428;2023-11-21T11:43:00;6.77;;;5.00;;
73747;SDS011;62056;52.130;5.428;2023-11-21T11:45:34;5.03;;;3.85;;
73747;SDS011;62056;52.130;5.428;2023-11-21T11:48:08;5.45;;;3.90;;
73747;SDS011;62056;52.130;5.428;2023-11-21T11:53:43;7.53;;;6.32;;
73747;SDS011;62056;52.130;5.428;2023-11-21T11:56:19;5.07;;;4.07;;
73747;SDS011;62056;52.130;5.428;2023-11-21T11:58:52;7.72;;;5.32;;
73747;SDS011;62056;52.130;5.428;2023-11-21T12:01:20;5.82;;;4.28;;
73747;SDS011;62056;52.130;5.428;2023-11-21T12:04:22;7.15;;;4.85;;
73747;SDS011;62056;52.130;5.428;2023-11-21T12:06:40;7.32;;;5.10;;
73747;SDS011;62056;52.130;5.428;2023-11-21T12:09:17;6.63;;;4.97;;
73747;SDS011;62056;52.130;5.428;2023-11-21T12:11:46;6.80;;;5.40;;
73747;SDS011;62056;52.130;5.428;2023-11-21T12:14:13;8.20;;;5.07;;
73747;SDS011;62056;52.130;5.428;2023-11-21T12:16:40;6.40;;;5.60;;
73747;SDS011;62056;52.130;5.428;2023-11-21T12:19:11;8.23;;;6.05;;
73747;SDS011;62056;52.130;5.428;2023-11-21T12:21:39;7.43;;;6.33;;
73747;SDS011;62056;52.130;5.428;2023-11-21T12:24:11;8.82;;;6.70;;
73747;SDS011;62056;52.130;5.428;2023-11-21T12:26:41;6.70;;;5.57;;
73747;SDS011;62056;52.130;5.428;2023-11-21T12:29:08;6.38;;;3.45;;
73747;SDS011;62056;52.130;5.428;2023-11-21T12:31:37;6.97;;;5.75;;
73747;SDS011;62056;52.130;5.428;2023-11-21T12:34:04;9.37;;;6.13;;
73747;SDS011;62056;52.130;5.428;2023-11-21T12:36:33;6.05;;;5.35;;
73747;SDS011;62056;52.130;5.428;2023-11-21T12:39:01;6.75;;;5.20;;
73747;SDS011;62056;52.130;5.428;2023-11-21T12:41:29;9.30;;;6.13;;
73747;SDS011;62056;52.130;5.428;2023-11-21T12:43:57;7.00;;;5.63;;
73747;SDS011;62056;52.130;5.428;2023-11-21T12:46:24;9.33;;;6.50;;
73747;SDS011;62056;52.130;5.428;2023-11-21T12:48:54;6.68;;;5.50;;
73747;SDS011;62056;52.130;5.428;2023-11-21T12:51:23;6.88;;;6.18;;
73747;SDS011;62056;52.130;5.428;2023-11-21T12:53:50;6.78;;;5.55;;
73747;SDS011;62056;52.130;5.428;2023-11-21T12:56:17;7.63;;;6.70;;
73747;SDS011;62056;52.130;5.428;2023-11-21T12:58:44;6.57;;;5.60;;
73747;SDS011;62056;52.130;5.428;2023-11-21T13:01:14;5.32;;;4.40;;
73747;SDS011;62056;52.130;5.428;2023-11-21T13:03:47;7.35;;;6.35;;
73747;SDS011;62056;52.130;5.428;2023-11-21T13:06:17;9.60;;;6.65;;
73747;SDS011;62056;52.130;5.428;2023-11-21T13:08:47;6.22;;;5.15;;
73747;SDS011;62056;52.130;5.428;2023-11-21T13:11:14;7.37;;;6.30;;
73747;SDS011;62056;52.130;5.428;2023-11-21T13:13:41;6.75;;;5.03;;
73747;SDS011;62056;52.130;5.428;2023-11-21T13:16:10;6.55;;;5.80;;
73747;SDS011;62056;52.130;5.428;2023-11-21T13:18:37;8.18;;;5.85;;
73747;SDS011;62056;52.130;5.428;2023-11-21T13:21:07;5.80;;;4.90;;
73747;SDS011;62056;52.130;5.428;2023-11-21T13:23:44;5.50;;;4.40;;
73747;SDS011;62056;52.130;5.428;2023-11-21T13:26:17;5.53;;;3.13;;
73747;SDS011;62056;52.130;5.428;2023-11-21T13:28:48;3.92;;;3.50;;
73747;SDS011;62056;52.130;5.428;2023-11-21T13:31:15;2.33;;;2.10;;
73747;SDS011;62056;52.130;5.428;2023-11-21T13:33:50;2.60;;;2.20;;
73747;SDS011;62056;52.130;5.428;2023-11-21T13:36:25;2.50;;;1.80;;
73747;SDS011;62056;52.130;5.428;2023-11-21T13:38:57;2.47;;;1.77;;
73747;SDS011;62056;52.130;5.428;2023-11-21T13:41:25;2.10;;;1.52;;
73747;SDS011;62056;52.130;5.428;2023-11-21T13:43:57;2.85;;;2.05;;
73747;SDS011;62056;52.130;5.428;2023-11-21T13:46:32;1.95;;;1.55;;
73747;SDS011;62056;52.130;5.428;2023-11-21T13:49:04;2.67;;;1.80;;
73747;SDS011;62056;52.130;5.428;2023-11-21T13:51:36;6.63;;;3.38;;
73747;SDS011;62056;52.130;5.428;2023-11-21T13:54:18;5.30;;;3.97;;
73747;SDS011;62056;52.130;5.428;2023-11-21T13:56:46;4.10;;;3.60;;
73747;SDS011;62056;52.130;5.428;2023-11-21T13:59:13;5.18;;;4.57;;
73747;SDS011;62056;52.130;5.428;2023-11-21T14:01:48;4.10;;;3.70;;
73747;SDS011;62056;52.130;5.428;2023-11-21T14:04:38;5.85;;;5.25;;
73747;SDS011;62056;52.130;5.428;2023-11-21T14:07:27;5.07;;;4.47;;
73747;SDS011;62056;52.130;5.428;2023-11-21T14:10:03;9.60;;;6.47;;
73747;SDS011;62056;52.130;5.428;2023-11-21T14:12:41;7.82;;;6.60;;
73747;SDS011;62056;52.130;5.428;2023-11-21T14:15:09;11.57;;;7.60;;
73747;SDS011;62056;52.130;5.428;2023-11-21T14:17:38;10.82;;;6.88;;
73747;SDS011;62056;52.130;5.428;2023-11-21T14:20:08;9.60;;;7.20;;
73747;SDS011;62056;52.130;5.428;2023-11-21T14:22:43;7.38;;;6.40;;
73747;SDS011;62056;52.130;5.428;2023-11-21T14:25:12;8.95;;;6.50;;
73747;SDS011;62056;52.130;5.428;2023-11-21T14:27:41;6.90;;;6.20;;
73747;SDS011;62056;52.130;5.428;2023-11-21T14:30:07;9.57;;;7.35;;
73747;SDS011;62056;52.130;5.428;2023-11-21T14:32:35;8.02;;;7.22;;
73747;SDS011;62056;52.130;5.428;2023-11-21T14:35:04;9.50;;;7.10;;
73747;SDS011;62056;52.130;5.428;2023-11-21T14:37:32;10.40;;;7.55;;
73747;SDS011;62056;52.130;5.428;2023-11-21T14:39:58;9.93;;;7.80;;
73747;SDS011;62056;52.130;5.428;2023-11-21T14:42:28;7.68;;;6.25;;
73747;SDS011;62056;52.130;5.428;2023-11-21T14:44:58;8.00;;;7.20;;
73747;SDS011;62056;52.130;5.428;2023-11-21T14:47:37;10.25;;;7.13;;
73747;SDS011;62056;52.130;5.428;2023-11-21T14:50:08;10.40;;;7.93;;
73747;SDS011;62056;52.130;5.428;2023-11-21T14:53:12;11.87;;;8.00;;
73747;SDS011;62056;52.130;5.428;2023-11-21T14:55:39;8.43;;;6.18;;
73747;SDS011;62056;52.130;5.428;2023-11-21T14:58:24;8.73;;;6.57;;
73747;SDS011;62056;52.130;5.428;2023-11-21T15:00:54;11.52;;;8.55;;
73747;SDS011;62056;52.130;5.428;2023-11-21T15:03:25;10.77;;;6.85;;
73747;SDS011;62056;52.130;5.428;2023-11-21T15:06:10;12.07;;;7.90;;
73747;SDS011;62056;52.130;5.428;2023-11-21T15:08:51;9.55;;;6.97;;